AirNav   ATP
 
 706 users online  

MO41 Landing Pad
Troy, Missouri, USA

GOING TO TROY?


FAA INFORMATION EFFECTIVE 06 DECEMBER 2018

Location

FAA Identifier: MO41
Lat/Long: 38-58-55.6700N / 090-57-47.1100W
38-58.927833N / 090-57.785167W
38.9821306 / -90.9630861
(estimated)
Elevation: 520 ft. / 158 m (estimated)
Variation: 01E (1995)
Time zone: UTC -6 (UTC -5 during Daylight Saving Time)
Zip code: 63379

Heliport Operations

Heliport use: Private use, MEDICAL USE.
Activation date: 10/1997
Control tower: no
ARTCC: KANSAS CITY CENTER
FSS: SAINT LOUIS FLIGHT SERVICE STATION
Attendance: CONTINUOUS
Wind indicator: yes
Segmented circle: no
Lights: FOR FLOOD LGTS CALL 314-528-8551.

Nearby radio navigation aids

VOR radial/distance  VOR name  Freq  Var
FTZr356/17.3FORISTELL VORTAC110.8005E
STLr287/23.6ST LOUIS VORTAC117.4001E
CSXr296/31.3CARDINAL VOR/DME116.4500E

Heliport Services

Runway Information

Helipad H1

Dimensions: 50 x 50 ft. / 15 x 15 m
Surface: concrete
Runway edge lights: IN GROUND GREEN FLUSH LED LIGHTING
Latitude: 38-58.927833N
Longitude: 090-57.785167W
Elevation: 520.0 ft.
Traffic pattern: leftleft

Heliport Ownership and Management from official FAA records

Ownership: Privately-owned
Owner: LINCOLN COUNTY MEMORIAL HOSP.
1000 EAST CHERRY STREET
TROY, MO 63379
Phone 314-528-8551
Manager: ED JACQUIN.
1000 EAST CHERRY STREET
TROY, MO 63379
Phone 314-528-8551

Additional Remarks

OWNER DESIRES HELIPORT NOT BE CHARTED.
FOR CD CTC ST LOUIS APCH AT 314-890-1018.

Instrument Procedures

There are no published instrument procedures at MO41.

Some nearby airports with instrument procedures:

KFYG - Washington Regional Airport (24 nm S)
KSUS - Spirit of St Louis Airport (24 nm SE)
KSET - St Charles County Smartt Airport (25 nm E)
H19 - Bowling Green Municipal Airport (26 nm NW)
1H0 - Creve Coeur Airport (26 nm SE)
 
Loc | Ops | Rwys | IFR | FBO | Links
Com | Nav | Svcs | Stats | Notes

Kansas City Aviation Department
 
Area around MO41 (Landing Pad)
 
Road maps at: MapQuest Bing Google
 
Aerial photo
No photo
 
Sectional chart

 
Airport distance calculator
Flying to Landing Pad? Find the distance to fly.

From to MO41

Sunrise and sunset
Times for 11-Dec-2018
 Local
(UTC-6)
 Zulu
(UTC)
Morning civil twilight06:4412:44
Sunrise07:1413:14
Sunset16:4122:41
Evening civil twilight17:1123:11

Current date and time
Zulu (UTC)  12-Dec-2018 04:40:18
Local (UTC-6)  11-Dec-2018 22:40:18
 
METAR
KFYG 
24nm S 
120415Z AUTO 13008KT 10SM CLR 07/M03 A2998 RMK AO2
KSUS 
25nm SE 
120354Z 19010G17KT 10SM CLR 08/M03 A2999 RMK AO2 SLP159 T00831028
KSET 
25nm E 
120354Z AUTO 15006KT 10SM CLR 04/M02 A2999 RMK AO2 SLP158 T00391022
KSTL 
31nm SE 
120351Z 18011G18KT 10SM OVC190 07/M03 A3000 RMK AO2 SLP165 T00721028
KPPQ 
40nm N 
120415Z AUTO 18010G14KT 10SM CLR 08/M02 A2993 RMK AO2 T00751016
KMYJ 
41nm W 
120355Z AUTO 16009KT 10SM CLR 04/M01 A2992 RMK AO2
KALN 
44nm E 
120415Z AUTO 16008KT 10SM CLR 05/00 A3001 RMK AO2 T00471005
KCPS 
45nm SE 
120353Z 17004KT 10SM CLR 05/M02 A3002 RMK AO2 SLP168 T00501022 $
TAF
KSUS 
25nm SE 
111724Z 1118/1218 23010KT P6SM FEW250 FM112100 18006KT P6SM FEW250 FM120200 19008KT P6SM BKN080 WS018/23040KT FM121100 25010KT P6SM SKC
NOTAMs
Click for the latest NOTAMs
NOTAMs are issued by the DoD/FAA and will open in a separate window not controlled by AirNav.

 

 
 

Would you like to see your business listed on this page?

 If your business provides an interesting product or service to pilots, flight crews, aircraft, or users of the Landing Pad, you should consider listing it here.  To start the listing process, click on the button below
 
Add a business
 

Other Pages about Landing Pad

Update a link
 
Copyright © AirNav, LLC. All rights reserved. Privacy Policy  Contact